Terminal Aerodrome Forecast
Issued by NWS

Home | Current Version | Previous Version | Text Only | Print | Product List | Glossary On
Versions: 1 2 3 4 5 6 7 8 9 10 11 12 13 14 15 16 17
244
FTUS46 KMTR 270310 AAA
TAFSTS
TAF AMD
KSTS 270310Z 2703/2724 20007KT P6SM FEW025 FEW040
     FM270600 17004KT P6SM OVC025
     FM270900 16003KT P6SM OVC015
     FM272100 19008KT P6SM SCT025=

USA.gov is the U.S. government's official web portal to all federal, state and local government web resources and services.